sensor_id;sensor_type;location;lat;lon;timestamp;pressure;altitude;pressure_sealevel;temperature;humidity
10958;BME280;5531;42.570;23.676;2023-01-25T00:01:29;92952.72;;;0.87;100.00
10958;BME280;5531;42.570;23.676;2023-01-25T00:03:58;92957.03;;;0.76;100.00
10958;BME280;5531;42.570;23.676;2023-01-25T00:06:27;92949.66;;;0.71;100.00
10958;BME280;5531;42.570;23.676;2023-01-25T00:08:56;92961.84;;;0.80;100.00
10958;BME280;5531;42.570;23.676;2023-01-25T00:11:25;92954.34;;;0.77;100.00
10958;BME280;5531;42.570;23.676;2023-01-25T00:13:54;92959.97;;;0.82;100.00
10958;BME280;5531;42.570;23.676;2023-01-25T00:16:23;92957.63;;;0.79;100.00
10958;BME280;5531;42.570;23.676;2023-01-25T00:18:55;92963.81;;;0.77;100.00
10958;BME280;5531;42.570;23.676;2023-01-25T00:21:27;92959.25;;;0.69;100.00
10958;BME280;5531;42.570;23.676;2023-01-25T00:23:56;92957.59;;;0.68;100.00
10958;BME280;5531;42.570;23.676;2023-01-25T00:26:25;92959.47;;;0.66;100.00
10958;BME280;5531;42.570;23.676;2023-01-25T00:28:55;92958.06;;;0.73;100.00
10958;BME280;5531;42.570;23.676;2023-01-25T00:31:31;92953.75;;;0.73;100.00
10958;BME280;5531;42.570;23.676;2023-01-25T00:37:35;92956.28;;;0.51;100.00
10958;BME280;5531;42.570;23.676;2023-01-25T00:40:07;92953.22;;;0.46;100.00
10958;BME280;5531;42.570;23.676;2023-01-25T00:42:37;92951.91;;;0.40;100.00
10958;BME280;5531;42.570;23.676;2023-01-25T00:45:10;92947.31;;;0.32;100.00
10958;BME280;5531;42.570;23.676;2023-01-25T00:47:39;92949.50;;;0.26;100.00
10958;BME280;5531;42.570;23.676;2023-01-25T00:50:11;92946.94;;;0.26;100.00
10958;BME280;5531;42.570;23.676;2023-01-25T00:52:40;92949.63;;;0.24;100.00
10958;BME280;5531;42.570;23.676;2023-01-25T00:55:09;92951.06;;;0.28;100.00
10958;BME280;5531;42.570;23.676;2023-01-25T00:57:38;92957.28;;;0.37;100.00
10958;BME280;5531;42.570;23.676;2023-01-25T01:00:10;92950.16;;;0.41;100.00
10958;BME280;5531;42.570;23.676;2023-01-25T01:02:39;92952.72;;;0.41;100.00
10958;BME280;5531;42.570;23.676;2023-01-25T01:05:11;92948.19;;;0.44;100.00
10958;BME280;5531;42.570;23.676;2023-01-25T01:07:40;92944.31;;;0.50;100.00
10958;BME280;5531;42.570;23.676;2023-01-25T01:10:10;92942.91;;;0.46;100.00
10958;BME280;5531;42.570;23.676;2023-01-25T01:12:39;92945.13;;;0.50;100.00
10958;BME280;5531;42.570;23.676;2023-01-25T01:15:08;92948.22;;;0.56;100.00
10958;BME280;5531;42.570;23.676;2023-01-25T01:17:37;92942.69;;;0.60;100.00
10958;BME280;5531;42.570;23.676;2023-01-25T01:20:08;92945.03;;;0.63;100.00
10958;BME280;5531;42.570;23.676;2023-01-25T01:22:40;92940.50;;;0.67;100.00
10958;BME280;5531;42.570;23.676;2023-01-25T01:25:09;92945.78;;;0.65;100.00
10958;BME280;5531;42.570;23.676;2023-01-25T01:27:38;92943.53;;;0.61;100.00
10958;BME280;5531;42.570;23.676;2023-01-25T01:30:09;92936.38;;;0.64;100.00
10958;BME280;5531;42.570;23.676;2023-01-25T01:32:38;92935.56;;;0.64;100.00
10958;BME280;5531;42.570;23.676;2023-01-25T01:35:08;92940.22;;;0.59;100.00
10958;BME280;5531;42.570;23.676;2023-01-25T01:37:41;92943.53;;;0.61;100.00
10958;BME280;5531;42.570;23.676;2023-01-25T01:40:13;92944.59;;;0.69;100.00
10958;BME280;5531;42.570;23.676;2023-01-25T01:42:56;92935.44;;;0.54;100.00
10958;BME280;5531;42.570;23.676;2023-01-25T01:45:55;92928.88;;;0.61;100.00
10958;BME280;5531;42.570;23.676;2023-01-25T01:48:35;92924.19;;;0.66;100.00
10958;BME280;5531;42.570;23.676;2023-01-25T01:51:12;92921.03;;;0.63;100.00
10958;BME280;5531;42.570;23.676;2023-01-25T01:53:48;92925.72;;;0.69;100.00
10958;BME280;5531;42.570;23.676;2023-01-25T01:56:22;92920.22;;;0.62;100.00
10958;BME280;5531;42.570;23.676;2023-01-25T01:58:55;92923.03;;;0.59;100.00
10958;BME280;5531;42.570;23.676;2023-01-25T02:01:26;92930.50;;;0.51;100.00
10958;BME280;5531;42.570;23.676;2023-01-25T02:03:55;92922.06;;;0.60;100.00
10958;BME280;5531;42.570;23.676;2023-01-25T02:06:31;92918.13;;;0.67;100.00
10958;BME280;5531;42.570;23.676;2023-01-25T02:09:07;92918.78;;;0.58;100.00
10958;BME280;5531;42.570;23.676;2023-01-25T02:11:37;92918.75;;;0.47;100.00
10958;BME280;5531;42.570;23.676;2023-01-25T02:14:06;92910.66;;;0.40;100.00
10958;BME280;5531;42.570;23.676;2023-01-25T02:16:35;92916.38;;;0.32;100.00
10958;BME280;5531;42.570;23.676;2023-01-25T02:19:05;92913.00;;;0.32;100.00
10958;BME280;5531;42.570;23.676;2023-01-25T02:21:40;92915.56;;;0.32;100.00
10958;BME280;5531;42.570;23.676;2023-01-25T02:24:16;92919.56;;;0.36;100.00
10958;BME280;5531;42.570;23.676;2023-01-25T02:26:51;92924.59;;;0.26;100.00
10958;BME280;5531;42.570;23.676;2023-01-25T02:29:20;92926.91;;;0.29;100.00
10958;BME280;5531;42.570;23.676;2023-01-25T02:31:58;92922.53;;;0.43;100.00
10958;BME280;5531;42.570;23.676;2023-01-25T02:34:27;92920.19;;;0.51;100.00
10958;BME280;5531;42.570;23.676;2023-01-25T02:36:56;92925.94;;;0.54;100.00
10958;BME280;5531;42.570;23.676;2023-01-25T02:39:26;92917.16;;;0.68;100.00
10958;BME280;5531;42.570;23.676;2023-01-25T02:41:58;92919.50;;;0.71;100.00
10958;BME280;5531;42.570;23.676;2023-01-25T02:44:30;92914.97;;;0.75;100.00
10958;BME280;5531;42.570;23.676;2023-01-25T02:47:00;92913.44;;;0.72;100.00
10958;BME280;5531;42.570;23.676;2023-01-25T02:49:29;92911.22;;;0.79;100.00
10958;BME280;5531;42.570;23.676;2023-01-25T02:51:58;92909.66;;;0.77;100.00
10958;BME280;5531;42.570;23.676;2023-01-25T02:54:27;92920.47;;;0.82;100.00
10958;BME280;5531;42.570;23.676;2023-01-25T02:56:59;92919.41;;;0.84;100.00
10958;BME280;5531;42.570;23.676;2023-01-25T02:59:28;92917.16;;;0.80;100.00
10958;BME280;5531;42.570;23.676;2023-01-25T03:01:56;92911.34;;;0.89;100.00
10958;BME280;5531;42.570;23.676;2023-01-25T03:04:26;92913.31;;;0.85;100.00
10958;BME280;5531;42.570;23.676;2023-01-25T03:06:55;92911.91;;;0.81;100.00
10958;BME280;5531;42.570;23.676;2023-01-25T03:09:24;92916.81;;;0.84;100.00
10958;BME280;5531;42.570;23.676;2023-01-25T03:11:53;92918.13;;;0.90;100.00
10958;BME280;5531;42.570;23.676;2023-01-25T03:14:24;92916.13;;;0.82;100.00
10958;BME280;5531;42.570;23.676;2023-01-25T03:16:53;92914.25;;;0.84;100.00
10958;BME280;5531;42.570;23.676;2023-01-25T03:19:22;92911.66;;;0.73;100.00
10958;BME280;5531;42.570;23.676;2023-01-25T03:21:51;92907.09;;;0.88;100.00
10958;BME280;5531;42.570;23.676;2023-01-25T03:24:20;92910.63;;;0.87;100.00
10958;BME280;5531;42.570;23.676;2023-01-25T03:26:49;92910.63;;;0.76;100.00
10958;BME280;5531;42.570;23.676;2023-01-25T03:29:33;92908.28;;;0.84;100.00
10958;BME280;5531;42.570;23.676;2023-01-25T03:32:02;92913.09;;;0.77;100.00
10958;BME280;5531;42.570;23.676;2023-01-25T03:34:31;92920.94;;;0.76;100.00
10958;BME280;5531;42.570;23.676;2023-01-25T03:37:00;92910.03;;;0.61;100.00
10958;BME280;5531;42.570;23.676;2023-01-25T03:39:29;92909.66;;;0.54;100.00
10958;BME280;5531;42.570;23.676;2023-01-25T03:41:59;92906.56;;;0.49;100.00
10958;BME280;5531;42.570;23.676;2023-01-25T03:44:27;92913.94;;;0.42;100.00
10958;BME280;5531;42.570;23.676;2023-01-25T03:46:59;92908.00;;;0.53;100.00
10958;BME280;5531;42.570;23.676;2023-01-25T03:49:28;92905.06;;;0.46;100.00
10958;BME280;5531;42.570;23.676;2023-01-25T03:51:57;92912.69;;;0.48;100.00
10958;BME280;5531;42.570;23.676;2023-01-25T03:54:26;92909.75;;;0.41;100.00
10958;BME280;5531;42.570;23.676;2023-01-25T03:56:55;92904.00;;;0.49;100.00
10958;BME280;5531;42.570;23.676;2023-01-25T03:59:24;92909.53;;;0.56;100.00
10958;BME280;5531;42.570;23.676;2023-01-25T04:01:53;92905.31;;;0.54;100.00
10958;BME280;5531;42.570;23.676;2023-01-25T04:04:25;92902.59;;;0.45;100.00
10958;BME280;5531;42.570;23.676;2023-01-25T04:06:54;92904.22;;;0.34;100.00
10958;BME280;5531;42.570;23.676;2023-01-25T04:09:23;92904.44;;;0.31;100.00
10958;BME280;5531;42.570;23.676;2023-01-25T04:11:52;92900.22;;;0.30;100.00
10958;BME280;5531;42.570;23.676;2023-01-25T04:14:21;92910.63;;;0.29;100.00
10958;BME280;5531;42.570;23.676;2023-01-25T04:16:50;92914.13;;;0.16;100.00
10958;BME280;5531;42.570;23.676;2023-01-25T04:19:19;92911.63;;;0.04;100.00
10958;BME280;5531;42.570;23.676;2023-01-25T04:21:51;92912.09;;;0.09;100.00
10958;BME280;5531;42.570;23.676;2023-01-25T04:24:20;92905.25;;;-0.04;100.00
10958;BME280;5531;42.570;23.676;2023-01-25T04:26:49;92906.38;;;0.05;100.00
10958;BME280;5531;42.570;23.676;2023-01-25T04:29:18;92899.72;;;0.14;100.00
10958;BME280;5531;42.570;23.676;2023-01-25T04:31:47;92891.84;;;0.04;100.00
10958;BME280;5531;42.570;23.676;2023-01-25T04:34:16;92898.06;;;0.13;100.00
10958;BME280;5531;42.570;23.676;2023-01-25T04:36:45;92900.25;;;0.06;100.00
10958;BME280;5531;42.570;23.676;2023-01-25T04:39:17;92912.53;;;0.03;100.00
10958;BME280;5531;42.570;23.676;2023-01-25T04:41:46;92905.88;;;0.00;100.00
10958;BME280;5531;42.570;23.676;2023-01-25T04:44:15;92908.69;;;-0.03;100.00
10958;BME280;5531;42.570;23.676;2023-01-25T04:46:44;92917.00;;;0.01;100.00
10958;BME280;5531;42.570;23.676;2023-01-25T04:49:13;92912.66;;;0.01;100.00
10958;BME280;5531;42.570;23.676;2023-01-25T04:51:42;92911.03;;;0.00;100.00
10958;BME280;5531;42.570;23.676;2023-01-25T04:54:11;92904.06;;;-0.11;100.00
10958;BME280;5531;42.570;23.676;2023-01-25T04:56:43;92906.97;;;-0.15;100.00
10958;BME280;5531;42.570;23.676;2023-01-25T04:59:12;92908.91;;;-0.06;100.00
10958;BME280;5531;42.570;23.676;2023-01-25T05:01:41;92903.53;;;-0.27;100.00
10958;BME280;5531;42.570;23.676;2023-01-25T05:04:10;92909.97;;;-0.22;100.00
10958;BME280;5531;42.570;23.676;2023-01-25T05:06:39;92903.44;;;-0.26;100.00
10958;BME280;5531;42.570;23.676;2023-01-25T05:09:09;92898.94;;;-0.35;100.00
10958;BME280;5531;42.570;23.676;2023-01-25T05:11:38;92905.72;;;-0.34;100.00
10958;BME280;5531;42.570;23.676;2023-01-25T05:14:10;92911.78;;;-0.35;100.00
10958;BME280;5531;42.570;23.676;2023-01-25T05:16:39;92910.13;;;-0.36;100.00
10958;BME280;5531;42.570;23.676;2023-01-25T05:19:08;92905.50;;;-0.31;100.00
10958;BME280;5531;42.570;23.676;2023-01-25T05:21:37;92899.53;;;-0.31;100.00
10958;BME280;5531;42.570;23.676;2023-01-25T05:24:19;92900.19;;;-0.41;100.00
10958;BME280;5531;42.570;23.676;2023-01-25T05:26:48;92902.72;;;-0.52;100.00
10958;BME280;5531;42.570;23.676;2023-01-25T05:29:30;92897.56;;;-0.52;100.00
10958;BME280;5531;42.570;23.676;2023-01-25T05:32:00;92907.22;;;-0.56;100.00
10958;BME280;5531;42.570;23.676;2023-01-25T05:34:30;92903.63;;;-0.53;100.00
10958;BME280;5531;42.570;23.676;2023-01-25T05:36:59;92911.16;;;-0.63;100.00
10958;BME280;5531;42.570;23.676;2023-01-25T05:39:28;92907.28;;;-0.68;100.00
10958;BME280;5531;42.570;23.676;2023-01-25T05:41:57;92910.88;;;-0.71;100.00
10958;BME280;5531;42.570;23.676;2023-01-25T05:44:29;92915.81;;;-0.68;100.00
10958;BME280;5531;42.570;23.676;2023-01-25T05:46:58;92915.22;;;-0.71;100.00
10958;BME280;5531;42.570;23.676;2023-01-25T05:49:27;92924.84;;;-0.62;100.00
10958;BME280;5531;42.570;23.676;2023-01-25T05:51:56;92916.50;;;-0.53;100.00
10958;BME280;5531;42.570;23.676;2023-01-25T05:54:25;92916.81;;;-0.58;100.00
10958;BME280;5531;42.570;23.676;2023-01-25T05:56:55;92909.03;;;-0.69;100.00
10958;BME280;5531;42.570;23.676;2023-01-25T05:59:25;92910.59;;;-0.79;100.00
10958;BME280;5531;42.570;23.676;2023-01-25T06:01:56;92909.34;;;-0.74;100.00
10958;BME280;5531;42.570;23.676;2023-01-25T06:04:26;92917.06;;;-0.74;100.00
10958;BME280;5531;42.570;23.676;2023-01-25T06:06:55;92913.78;;;-0.76;100.00
10958;BME280;5531;42.570;23.676;2023-01-25T06:09:24;92913.97;;;-0.66;100.00
10958;BME280;5531;42.570;23.676;2023-01-25T06:11:53;92904.72;;;-0.68;100.00
10958;BME280;5531;42.570;23.676;2023-01-25T06:14:22;92913.47;;;-0.71;100.00
10958;BME280;5531;42.570;23.676;2023-01-25T06:16:51;92916.94;;;-0.72;100.00
10958;BME280;5531;42.570;23.676;2023-01-25T06:19:23;92918.41;;;-0.68;100.00
10958;BME280;5531;42.570;23.676;2023-01-25T06:21:52;92925.72;;;-0.75;100.00
10958;BME280;5531;42.570;23.676;2023-01-25T06:24:21;92934.34;;;-0.63;100.00
10958;BME280;5531;42.570;23.676;2023-01-25T06:26:50;92924.91;;;-0.51;100.00
10958;BME280;5531;42.570;23.676;2023-01-25T06:29:19;92925.97;;;-0.53;100.00
10958;BME280;5531;42.570;23.676;2023-01-25T06:31:48;92922.28;;;-0.62;100.00
10958;BME280;5531;42.570;23.676;2023-01-25T06:34:17;92925.16;;;-0.67;100.00
10958;BME280;5531;42.570;23.676;2023-01-25T06:36:50;92923.53;;;-0.68;100.00
10958;BME280;5531;42.570;23.676;2023-01-25T06:39:19;92924.88;;;-0.75;100.00
10958;BME280;5531;42.570;23.676;2023-01-25T06:41:48;92923.28;;;-0.89;100.00
10958;BME280;5531;42.570;23.676;2023-01-25T06:44:17;92924.09;;;-1.01;100.00
10958;BME280;5531;42.570;23.676;2023-01-25T06:46:46;92928.31;;;-0.87;100.00
10958;BME280;5531;42.570;23.676;2023-01-25T06:49:15;92931.09;;;-0.90;100.00
10958;BME280;5531;42.570;23.676;2023-01-25T06:51:44;92921.03;;;-1.06;100.00
10958;BME280;5531;42.570;23.676;2023-01-25T06:54:16;92916.50;;;-1.03;100.00
10958;BME280;5531;42.570;23.676;2023-01-25T06:56:45;92919.50;;;-0.96;100.00
10958;BME280;5531;42.570;23.676;2023-01-25T06:59:14;92916.69;;;-0.93;100.00
10958;BME280;5531;42.570;23.676;2023-01-25T07:01:43;92918.94;;;-0.88;100.00
10958;BME280;5531;42.570;23.676;2023-01-25T07:04:12;92912.50;;;-1.07;100.00
10958;BME280;5531;42.570;23.676;2023-01-25T07:06:41;92918.25;;;-1.03;100.00
10958;BME280;5531;42.570;23.676;2023-01-25T07:09:12;92914.38;;;-1.09;100.00
10958;BME280;5531;42.570;23.676;2023-01-25T07:11:44;92923.28;;;-1.02;100.00
10958;BME280;5531;42.570;23.676;2023-01-25T07:14:13;92925.47;;;-1.08;100.00
10958;BME280;5531;42.570;23.676;2023-01-25T07:16:42;92924.56;;;-1.07;100.00
10958;BME280;5531;42.570;23.676;2023-01-25T07:19:11;92922.59;;;-1.04;100.00
10958;BME280;5531;42.570;23.676;2023-01-25T07:21:42;92924.97;;;-1.26;100.00
10958;BME280;5531;42.570;23.676;2023-01-25T07:24:14;92929.41;;;-1.16;100.00
10958;BME280;5531;42.570;23.676;2023-01-25T07:26:46;92934.31;;;-1.13;100.00
10958;BME280;5531;42.570;23.676;2023-01-25T07:29:16;92928.56;;;-1.16;100.00
10958;BME280;5531;42.570;23.676;2023-01-25T07:31:45;92927.13;;;-1.07;100.00
10958;BME280;5531;42.570;23.676;2023-01-25T07:34:15;92925.97;;;-1.16;100.00
10958;BME280;5531;42.570;23.676;2023-01-25T07:36:44;92925.47;;;-1.08;100.00
10958;BME280;5531;42.570;23.676;2023-01-25T07:39:14;92929.78;;;-1.09;100.00
10958;BME280;5531;42.570;23.676;2023-01-25T07:41:43;92937.72;;;-1.25;100.00
10958;BME280;5531;42.570;23.676;2023-01-25T07:44:14;92935.16;;;-1.25;100.00
10958;BME280;5531;42.570;23.676;2023-01-25T07:46:44;92942.13;;;-1.14;100.00
10958;BME280;5531;42.570;23.676;2023-01-25T07:49:12;92942.97;;;-1.14;100.00
10958;BME280;5531;42.570;23.676;2023-01-25T07:51:42;92941.91;;;-1.11;100.00
10958;BME280;5531;42.570;23.676;2023-01-25T07:54:11;92939.75;;;-1.04;100.00
10958;BME280;5531;42.570;23.676;2023-01-25T07:56:40;92935.16;;;-1.12;100.00
10958;BME280;5531;42.570;23.676;2023-01-25T07:59:09;92941.72;;;-1.08;100.00
10958;BME280;5531;42.570;23.676;2023-01-25T08:01:41;92940.28;;;-1.12;100.00
10958;BME280;5531;42.570;23.676;2023-01-25T08:04:10;92941.19;;;-1.13;100.00
10958;BME280;5531;42.570;23.676;2023-01-25T08:06:39;92939.03;;;-1.06;100.00
10958;BME280;5531;42.570;23.676;2023-01-25T08:09:12;92941.81;;;-1.09;100.00
10958;BME280;5531;42.570;23.676;2023-01-25T08:11:42;92947.06;;;-1.11;100.00
10958;BME280;5531;42.570;23.676;2023-01-25T08:14:12;92944.47;;;-0.98;100.00
10958;BME280;5531;42.570;23.676;2023-01-25T08:16:43;92953.03;;;-0.98;100.00
10958;BME280;5531;42.570;23.676;2023-01-25T08:19:12;92946.94;;;-0.97;100.00
10958;BME280;5531;42.570;23.676;2023-01-25T08:21:41;92952.28;;;-1.00;100.00
10958;BME280;5531;42.570;23.676;2023-01-25T08:24:10;92951.16;;;-0.96;100.00
10958;BME280;5531;42.570;23.676;2023-01-25T08:26:40;92949.41;;;-0.82;100.00
10958;BME280;5531;42.570;23.676;2023-01-25T08:29:10;92941.38;;;-0.78;100.00
10958;BME280;5531;42.570;23.676;2023-01-25T08:31:43;92944.16;;;-0.81;100.00
10958;BME280;5531;42.570;23.676;2023-01-25T08:34:12;92944.84;;;-0.66;100.00
10958;BME280;5531;42.570;23.676;2023-01-25T08:36:41;92942.47;;;-0.69;100.00
10958;BME280;5531;42.570;23.676;2023-01-25T08:39:11;92942.22;;;-0.53;100.00
10958;BME280;5531;42.570;23.676;2023-01-25T08:41:40;92947.22;;;-0.76;100.00
10958;BME280;5531;42.570;23.676;2023-01-25T08:44:10;92950.84;;;-0.78;100.00
10958;BME280;5531;42.570;23.676;2023-01-25T08:46:39;92950.03;;;-0.92;100.00
10958;BME280;5531;42.570;23.676;2023-01-25T08:49:11;92942.00;;;-0.87;100.00
10958;BME280;5531;42.570;23.676;2023-01-25T08:51:40;92939.72;;;-0.79;100.00
10958;BME280;5531;42.570;23.676;2023-01-25T08:54:11;92932.72;;;-0.77;100.00
10958;BME280;5531;42.570;23.676;2023-01-25T08:56:41;92935.59;;;-0.68;100.00
10958;BME280;5531;42.570;23.676;2023-01-25T08:59:11;92939.59;;;-0.64;100.00
10958;BME280;5531;42.570;23.676;2023-01-25T09:01:41;92942.38;;;-0.67;100.00
10958;BME280;5531;42.570;23.676;2023-01-25T09:04:12;92944.97;;;-0.80;100.00
10958;BME280;5531;42.570;23.676;2023-01-25T09:06:41;92928.59;;;-0.79;100.00
10958;BME280;5531;42.570;23.676;2023-01-25T09:09:11;92938.09;;;-0.80;100.00
10958;BME280;5531;42.570;23.676;2023-01-25T09:11:40;92933.22;;;-0.71;100.00
10958;BME280;5531;42.570;23.676;2023-01-25T09:14:09;92925.63;;;-0.73;100.00
10958;BME280;5531;42.570;23.676;2023-01-25T09:16:38;92920.69;;;-0.76;100.00
10958;BME280;5531;42.570;23.676;2023-01-25T09:19:09;92919.81;;;-0.64;100.00
10958;BME280;5531;42.570;23.676;2023-01-25T09:21:40;92908.75;;;-0.77;100.00
10958;BME280;5531;42.570;23.676;2023-01-25T09:24:09;92911.81;;;-0.72;100.00
10958;BME280;5531;42.570;23.676;2023-01-25T09:26:40;92907.41;;;-0.70;100.00
10958;BME280;5531;42.570;23.676;2023-01-25T09:29:10;92913.53;;;-0.60;100.00
10958;BME280;5531;42.570;23.676;2023-01-25T09:31:39;92913.97;;;-0.66;100.00
10958;BME280;5531;42.570;23.676;2023-01-25T09:34:09;92911.66;;;-0.58;100.00
10958;BME280;5531;42.570;23.676;2023-01-25T09:36:41;92916.81;;;-0.58;100.00
10958;BME280;5531;42.570;23.676;2023-01-25T09:39:11;92901.81;;;-0.64;100.00
10958;BME280;5531;42.570;23.676;2023-01-25T09:42:03;92903.13;;;-0.58;100.00
10958;BME280;5531;42.570;23.676;2023-01-25T09:44:45;92899.00;;;-0.61;100.00
10958;BME280;5531;42.570;23.676;2023-01-25T09:47:24;92892.25;;;-0.62;100.00
10958;BME280;5531;42.570;23.676;2023-01-25T09:55:51;92881.59;;;-0.57;100.00
10958;BME280;5531;42.570;23.676;2023-01-25T09:58:29;92869.16;;;-0.50;100.00
10958;BME280;5531;42.570;23.676;2023-01-25T10:01:09;92864.69;;;-0.48;100.00
10958;BME280;5531;42.570;23.676;2023-01-25T10:03:46;92867.81;;;-0.32;100.00
10958;BME280;5531;42.570;23.676;2023-01-25T10:06:18;92866.78;;;-0.29;100.00
10958;BME280;5531;42.570;23.676;2023-01-25T10:08:56;92859.72;;;-0.39;100.00
10958;BME280;5531;42.570;23.676;2023-01-25T10:11:30;92854.41;;;-0.24;100.00
10958;BME280;5531;42.570;23.676;2023-01-25T10:13:59;92850.69;;;-0.09;100.00
10958;BME280;5531;42.570;23.676;2023-01-25T10:16:31;92841.91;;;-0.17;100.00
10958;BME280;5531;42.570;23.676;2023-01-25T10:19:11;92849.06;;;-0.10;100.00
10958;BME280;5531;42.570;23.676;2023-01-25T10:21:44;92843.63;;;-0.18;100.00
10958;BME280;5531;42.570;23.676;2023-01-25T10:27:28;92838.38;;;-0.16;100.00
10958;BME280;5531;42.570;23.676;2023-01-25T10:30:07;92834.66;;;-0.12;100.00
10958;BME280;5531;42.570;23.676;2023-01-25T10:32:41;92836.19;;;0.02;100.00
10958;BME280;5531;42.570;23.676;2023-01-25T10:35:14;92838.47;;;0.17;100.00
10958;BME280;5531;42.570;23.676;2023-01-25T10:37:44;92825.03;;;0.25;100.00
10958;BME280;5531;42.570;23.676;2023-01-25T10:40:20;92825.81;;;0.14;100.00
10958;BME280;5531;42.570;23.676;2023-01-25T10:42:53;92814.22;;;0.09;100.00
10958;BME280;5531;42.570;23.676;2023-01-25T10:45:24;92811.66;;;0.09;100.00
10958;BME280;5531;42.570;23.676;2023-01-25T10:47:59;92813.75;;;0.04;100.00
10958;BME280;5531;42.570;23.676;2023-01-25T10:50:45;92811.72;;;-0.04;100.00
10958;BME280;5531;42.570;23.676;2023-01-25T10:53:27;92806.56;;;-0.04;100.00
10958;BME280;5531;42.570;23.676;2023-01-25T10:56:23;92799.31;;;0.01;100.00
10958;BME280;5531;42.570;23.676;2023-01-25T10:59:06;92792.66;;;-0.02;100.00
10958;BME280;5531;42.570;23.676;2023-01-25T11:01:36;92795.50;;;0.07;100.00
10958;BME280;5531;42.570;23.676;2023-01-25T11:04:23;92791.28;;;0.17;100.00
10958;BME280;5531;42.570;23.676;2023-01-25T11:06:53;92789.50;;;0.17;100.00
10958;BME280;5531;42.570;23.676;2023-01-25T11:09:41;92791.41;;;0.15;100.00
10958;BME280;5531;42.570;23.676;2023-01-25T11:12:18;92793.28;;;0.25;100.00
10958;BME280;5531;42.570;23.676;2023-01-25T11:14:48;92789.75;;;0.14;100.00
10958;BME280;5531;42.570;23.676;2023-01-25T11:17:23;92787.75;;;0.07;100.00
10958;BME280;5531;42.570;23.676;2023-01-25T11:20:10;92795.09;;;-0.11;100.00
10958;BME280;5531;42.570;23.676;2023-01-25T11:22:49;92787.50;;;-0.02;100.00
10958;BME280;5531;42.570;23.676;2023-01-25T11:25:28;92783.56;;;-0.30;100.00
10958;BME280;5531;42.570;23.676;2023-01-25T11:28:27;92773.25;;;-0.30;100.00
10958;BME280;5531;42.570;23.676;2023-01-25T11:30:56;92769.19;;;-0.32;100.00
10958;BME280;5531;42.570;23.676;2023-01-25T11:33:26;92764.63;;;-0.29;100.00
10958;BME280;5531;42.570;23.676;2023-01-25T11:36:12;92759.50;;;-0.17;100.00
10958;BME280;5531;42.570;23.676;2023-01-25T11:39:03;92754.47;;;-0.19;100.00
10958;BME280;5531;42.570;23.676;2023-01-25T11:41:45;92754.56;;;-0.21;100.00
10958;BME280;5531;42.570;23.676;2023-01-25T11:44:42;92755.41;;;-0.09;100.00
10958;BME280;5531;42.570;23.676;2023-01-25T11:47:22;92748.03;;;-0.13;100.00
10958;BME280;5531;42.570;23.676;2023-01-25T11:50:02;92757.66;;;-0.04;100.00
10958;BME280;5531;42.570;23.676;2023-01-25T11:52:49;92739.25;;;-0.11;100.00
10958;BME280;5531;42.570;23.676;2023-01-25T11:55:25;92739.72;;;-0.06;100.00
10958;BME280;5531;42.570;23.676;2023-01-25T11:58:10;92736.56;;;-0.21;100.00
10958;BME280;5531;42.570;23.676;2023-01-25T12:00:56;92733.75;;;-0.17;100.00
10958;BME280;5531;42.570;23.676;2023-01-25T12:03:45;92732.22;;;-0.20;100.00
10958;BME280;5531;42.570;23.676;2023-01-25T12:06:23;92728.00;;;-0.32;100.00
10958;BME280;5531;42.570;23.676;2023-01-25T12:09:20;92725.41;;;-0.32;100.00
10958;BME280;5531;42.570;23.676;2023-01-25T12:12:02;92727.38;;;-0.36;100.00
10958;BME280;5531;42.570;23.676;2023-01-25T12:14:43;92723.53;;;-0.30;100.00
10958;BME280;5531;42.570;23.676;2023-01-25T12:17:27;92715.78;;;-0.42;100.00
10958;BME280;5531;42.570;23.676;2023-01-25T12:20:19;92717.31;;;-0.28;100.00
10958;BME280;5531;42.570;23.676;2023-01-25T12:25:58;92725.81;;;-0.14;100.00
10958;BME280;5531;42.570;23.676;2023-01-25T12:28:35;92711.16;;;-0.25;100.00
10958;BME280;5531;42.570;23.676;2023-01-25T12:31:12;92704.47;;;-0.16;100.00
10958;BME280;5531;42.570;23.676;2023-01-25T12:33:51;92697.47;;;-0.03;100.00
10958;BME280;5531;42.570;23.676;2023-01-25T12:36:27;92701.22;;;-0.07;100.00
10958;BME280;5531;42.570;23.676;2023-01-25T12:39:02;92696.41;;;-0.01;100.00
10958;BME280;5531;42.570;23.676;2023-01-25T12:41:37;92695.38;;;-0.09;100.00
10958;BME280;5531;42.570;23.676;2023-01-25T12:44:14;92695.16;;;0.05;100.00
10958;BME280;5531;42.570;23.676;2023-01-25T12:46:51;92694.53;;;0.02;100.00
10958;BME280;5531;42.570;23.676;2023-01-25T12:49:29;92693.03;;;-0.12;100.00
10958;BME280;5531;42.570;23.676;2023-01-25T12:52:06;92693.03;;;-0.12;100.00
10958;BME280;5531;42.570;23.676;2023-01-25T12:54:38;92699.44;;;-0.07;100.00
10958;BME280;5531;42.570;23.676;2023-01-25T12:57:18;92691.38;;;-0.13;100.00
10958;BME280;5531;42.570;23.676;2023-01-25T12:59:56;92690.44;;;-0.12;100.00
10958;BME280;5531;42.570;23.676;2023-01-25T13:02:53;92686.22;;;-0.13;100.00
10958;BME280;5531;42.570;23.676;2023-01-25T13:05:32;92687.41;;;-0.06;100.00
10958;BME280;5531;42.570;23.676;2023-01-25T13:08:13;92690.19;;;-0.32;100.00
10958;BME280;5531;42.570;23.676;2023-01-25T13:10:47;92682.69;;;-0.46;100.00
10958;BME280;5531;42.570;23.676;2023-01-25T13:13:23;92678.72;;;-0.39;100.00
10958;BME280;5531;42.570;23.676;2023-01-25T13:15:54;92675.66;;;-0.33;100.00
10958;BME280;5531;42.570;23.676;2023-01-25T13:18:37;92672.16;;;-0.32;100.00
10958;BME280;5531;42.570;23.676;2023-01-25T13:21:42;92671.94;;;-0.40;100.00
10958;BME280;5531;42.570;23.676;2023-01-25T13:24:16;92670.28;;;-0.41;100.00
10958;BME280;5531;42.570;23.676;2023-01-25T13:29:54;92664.78;;;-0.37;100.00
10958;BME280;5531;42.570;23.676;2023-01-25T13:35:36;92671.00;;;-0.39;100.00
10958;BME280;5531;42.570;23.676;2023-01-25T13:38:27;92676.00;;;-0.38;100.00
10958;BME280;5531;42.570;23.676;2023-01-25T13:41:10;92679.41;;;-0.48;100.00
10958;BME280;5531;42.570;23.676;2023-01-25T13:43:44;92678.19;;;-0.56;100.00
10958;BME280;5531;42.570;23.676;2023-01-25T13:46:17;92678.88;;;-0.76;100.00